Time;durP1;ratioP1;P1;durP2;ratioP2;P2;SDS_P1;SDS_P2;PMS_P1;PMS_P2;Temp;Humidity;BMP_temperature;BMP_pressure;BME280_temperature;BME280_humidity;BME280_pressure;Samples;Min_cycle;Max_cycle;Signal;HPM_P1;HPM_P2
2021/06/12 00:01:58;;;;;;;13.02;9.15;;;17.10;68.90;;;;;;6122734;23;20002;-71
2021/06/12 00:04:24;;;;;;;13.82;9.63;;;17.10;69.00;;;;;;6121586;23;19998;-72
2021/06/12 00:06:57;;;;;;;15.90;9.75;;;17.00;68.90;;;;;;6122414;23;20423;-71
2021/06/12 00:09:23;;;;;;;14.95;8.80;;;17.00;69.00;;;;;;6120907;23;20027;-74
2021/06/12 00:11:50;;;;;;;13.45;10.63;;;17.00;69.10;;;;;;6122464;23;20010;-70
2021/06/12 00:14:17;;;;;;;17.13;11.30;;;17.00;69.10;;;;;;6122097;23;19998;-71
2021/06/12 00:16:43;;;;;;;14.85;10.82;;;17.00;69.10;;;;;;6120697;23;20024;-75
2021/06/12 00:19:50;;;;;;;15.88;11.10;;;17.00;69.20;;;;;;6120471;23;20006;-70
2021/06/12 00:22:16;;;;;;;18.65;10.50;;;17.00;69.20;;;;;;6119599;23;20021;-71
2021/06/12 00:24:43;;;;;;;11.48;8.95;;;17.00;69.10;;;;;;6118716;23;20014;-71
2021/06/12 00:27:11;;;;;;;11.38;9.20;;;17.00;69.10;;;;;;6120832;23;20005;-71
2021/06/12 00:29:37;;;;;;;13.82;9.07;;;17.00;69.10;;;;;;6120611;23;20040;-72
2021/06/12 00:32:04;;;;;;;16.13;8.70;;;17.00;69.10;;;;;;6122880;23;20321;-71
2021/06/12 00:34:30;;;;;;;14.57;9.73;;;16.90;69.10;;;;;;6120704;23;20006;-72
2021/06/12 00:36:57;;;;;;;15.48;8.52;;;16.90;69.10;;;;;;6120250;23;20044;-73
2021/06/12 00:39:23;;;;;;;14.07;8.68;;;16.90;69.10;;;;;;6121204;23;20022;-71
2021/06/12 00:41:50;;;;;;;14.35;9.07;;;16.90;69.10;;;;;;6122169;23;20005;-71
2021/06/12 00:44:16;;;;;;;9.68;7.93;;;16.90;69.10;;;;;;6121172;23;20006;-70
2021/06/12 00:46:43;;;;;;;10.48;7.95;;;16.90;69.10;;;;;;6122063;23;20002;-71
2021/06/12 00:49:09;;;;;;;11.88;9.05;;;16.90;69.10;;;;;;6122059;23;20013;-71
2021/06/12 00:51:37;;;;;;;13.98;7.82;;;16.90;69.10;;;;;;6120640;23;20006;-70
2021/06/12 00:54:03;;;;;;;10.82;8.23;;;16.90;69.00;;;;;;6122347;23;20017;-70
2021/06/12 00:56:30;;;;;;;9.07;7.65;;;16.80;69.00;;;;;;6120689;23;20044;-70
2021/06/12 00:58:57;;;;;;;10.95;6.85;;;16.90;69.00;;;;;;6122081;23;20002;-70
2021/06/12 01:01:23;;;;;;;11.40;7.78;;;16.90;69.00;;;;;;6121299;23;20494;-71
2021/06/12 01:03:50;;;;;;;11.07;7.30;;;16.80;68.90;;;;;;6122212;23;20038;-71
2021/06/12 01:06:20;;;;;;;11.75;7.43;;;16.80;68.90;;;;;;6121905;23;20156;-75
2021/06/12 01:08:47;;;;;;;12.02;8.10;;;16.80;68.90;;;;;;6120720;23;20448;-70
2021/06/12 01:11:15;;;;;;;12.23;8.35;;;16.80;68.90;;;;;;6122107;23;20012;-70
2021/06/12 01:13:59;;;;;;;13.98;8.50;;;16.80;68.90;;;;;;6120656;23;20008;-71
2021/06/12 01:16:52;;;;;;;12.23;8.95;;;16.80;68.80;;;;;;6121640;23;20010;-70
2021/06/12 01:19:25;;;;;;;15.90;9.23;;;16.80;68.80;;;;;;6109485;23;20006;-69
2021/06/12 01:21:54;;;;;;;10.40;8.73;;;16.80;68.80;;;;;;6121189;23;21005;-70
2021/06/12 01:24:55;;;;;;;18.05;11.57;;;16.80;68.80;;;;;;6122215;23;20002;-72
2021/06/12 01:27:45;;;;;;;26.25;19.30;;;16.80;68.80;;;;;;6073930;23;20002;-75
2021/06/12 01:30:19;;;;;;;22.75;15.18;;;16.70;68.70;;;;;;6121539;23;20508;-75
2021/06/12 01:32:56;;;;;;;16.85;11.60;;;16.70;68.70;;;;;;6121886;23;20005;-72
2021/06/12 01:35:39;;;;;;;10.85;9.15;;;16.80;68.80;;;;;;6120211;23;20048;-70
2021/06/12 01:38:08;;;;;;;10.88;8.20;;;16.70;68.80;;;;;;6120093;23;20442;-70
2021/06/12 01:40:38;;;;;;;9.98;7.28;;;16.70;68.80;;;;;;6120690;23;19997;-70
2021/06/12 01:43:09;;;;;;;12.68;6.55;;;16.70;68.70;;;;;;6121410;23;20068;-73
2021/06/12 01:45:39;;;;;;;7.13;5.65;;;16.70;68.80;;;;;;6121910;23;20017;-73
2021/06/12 01:48:08;;;;;;;5.75;4.82;;;16.70;68.80;;;;;;6121067;23;20005;-73
2021/06/12 01:50:36;;;;;;;8.20;5.25;;;16.70;68.80;;;;;;6121884;23;19998;-70
2021/06/12 01:53:03;;;;;;;9.68;5.07;;;16.70;68.70;;;;;;6120403;23;20430;-71
2021/06/12 01:55:32;;;;;;;8.10;5.50;;;16.70;68.70;;;;;;6121763;23;20009;-70
2021/06/12 01:58:03;;;;;;;10.18;5.88;;;16.70;68.80;;;;;;6120887;23;20382;-71
2021/06/12 02:00:30;;;;;;;7.85;5.10;;;16.70;68.80;;;;;;6120893;23;20005;-69
2021/06/12 02:03:00;;;;;;;9.35;4.93;;;16.60;68.80;;;;;;6121631;23;20442;-72
2021/06/12 02:05:28;;;;;;;14.13;10.77;;;16.60;69.60;;;;;;6120211;23;20002;-70
2021/06/12 02:07:56;;;;;;;21.80;16.48;;;16.60;69.10;;;;;;6120703;23;20017;-70
2021/06/12 02:10:28;;;;;;;21.50;15.02;;;16.60;69.40;;;;;;6120296;23;20359;-69
2021/06/12 02:12:55;;;;;;;22.55;15.98;;;16.60;70.30;;;;;;6121372;23;20006;-69
2021/06/12 02:15:24;;;;;;;20.45;15.50;;;16.70;69.90;;;;;;6120890;23;20002;-70
2021/06/12 02:17:54;;;;;;;20.38;13.50;;;16.70;70.00;;;;;;6120494;23;20068;-69
2021/06/12 02:20:22;;;;;;;21.83;13.98;;;16.70;70.20;;;;;;6121944;23;20002;-70
2021/06/12 02:22:52;;;;;;;20.42;13.23;;;16.70;70.40;;;;;;6119738;23;20006;-70
2021/06/12 02:25:20;;;;;;;15.90;12.10;;;16.70;70.60;;;;;;6123498;23;20013;-71
2021/06/12 02:27:55;;;;;;;19.60;12.45;;;16.70;70.60;;;;;;6121180;23;20089;-70
2021/06/12 02:30:27;;;;;;;15.27;10.70;;;16.80;70.80;;;;;;6122744;23;20014;-69
2021/06/12 02:32:59;;;;;;;14.15;8.95;;;16.80;70.80;;;;;;6123021;23;20005;-71
2021/06/12 02:35:26;;;;;;;11.30;8.07;;;16.80;70.90;;;;;;6122622;23;20009;-71
2021/06/12 02:37:52;;;;;;;11.77;7.72;;;16.80;70.90;;;;;;6121683;23;20021;-70
2021/06/12 02:40:19;;;;;;;9.07;7.25;;;16.80;70.90;;;;;;6122292;23;20077;-70
2021/06/12 02:42:46;;;;;;;12.73;7.05;;;16.80;70.90;;;;;;6123579;23;20005;-69
2021/06/12 02:45:13;;;;;;;12.60;6.88;;;16.80;71.00;;;;;;6119396;23;20085;-70
2021/06/12 02:47:50;;;;;;;12.23;7.30;;;16.80;71.20;;;;;;6121947;23;20005;-70
2021/06/12 02:50:19;;;;;;;10.23;7.00;;;16.80;71.20;;;;;;6121680;23;20388;-70
2021/06/12 02:52:47;;;;;;;15.02;7.43;;;16.80;71.40;;;;;;6121912;23;20069;-70
2021/06/12 02:55:15;;;;;;;10.85;5.57;;;16.90;71.70;;;;;;6123030;23;20009;-69
2021/06/12 02:57:48;;;;;;;19.58;8.25;;;16.80;71.80;;;;;;6121468;23;20446;-69
2021/06/12 03:00:18;;;;;;;10.73;6.60;;;16.80;71.90;;;;;;6122491;23;20010;-70
2021/06/12 03:02:47;;;;;;;11.38;6.13;;;16.80;72.10;;;;;;6122318;23;20040;-70
2021/06/12 03:05:17;;;;;;;19.65;7.68;;;16.90;72.30;;;;;;6122649;23;20006;-69
2021/06/12 03:07:50;;;;;;;16.95;7.63;;;16.90;72.50;;;;;;6122719;23;20047;-70
2021/06/12 03:10:17;;;;;;;11.70;7.20;;;16.90;72.70;;;;;;6120832;23;20799;-71
2021/06/12 03:12:47;;;;;;;10.05;6.45;;;16.90;73.00;;;;;;6122391;23;20083;-72
2021/06/12 03:15:15;;;;;;;9.40;6.85;;;16.90;73.20;;;;;;6121243;23;20028;-70
2021/06/12 03:17:44;;;;;;;12.68;6.93;;;16.90;73.40;;;;;;6120509;23;20014;-70
2021/06/12 03:20:13;;;;;;;13.90;7.70;;;16.90;73.60;;;;;;6119657;23;20370;-70
2021/06/12 03:22:42;;;;;;;13.13;7.40;;;16.90;73.60;;;;;;6121805;23;19998;-71
2021/06/12 03:25:09;;;;;;;13.57;7.03;;;16.90;74.40;;;;;;6122285;23;20013;-70
2021/06/12 03:27:36;;;;;;;14.13;7.35;;;16.90;73.70;;;;;;6120881;23;20002;-70
2021/06/12 03:30:04;;;;;;;18.40;6.97;;;16.90;73.80;;;;;;6122790;23;20035;-69
2021/06/12 03:32:31;;;;;;;16.02;7.38;;;16.90;73.90;;;;;;6121145;23;20326;-71
2021/06/12 03:34:58;;;;;;;15.35;7.10;;;16.90;74.20;;;;;;6122531;23;20014;-72
2021/06/12 03:37:26;;;;;;;18.98;8.30;;;16.90;74.50;;;;;;6119789;23;20369;-71
2021/06/12 03:39:53;;;;;;;14.60;7.05;;;16.90;74.70;;;;;;6122056;23;20002;-71
2021/06/12 03:42:21;;;;;;;10.82;6.95;;;16.90;74.80;;;;;;6121990;23;20002;-71
2021/06/12 03:44:50;;;;;;;14.25;7.20;;;16.90;75.10;;;;;;6121424;23;20013;-71
2021/06/12 03:47:18;;;;;;;13.50;7.43;;;16.90;75.30;;;;;;6121868;23;19998;-71
2021/06/12 03:49:45;;;;;;;16.33;6.68;;;16.90;75.50;;;;;;6120835;23;20470;-71
2021/06/12 03:52:12;;;;;;;13.07;6.45;;;16.90;75.60;;;;;;6121581;23;20006;-71
2021/06/12 03:54:41;;;;;;;12.65;6.70;;;16.90;75.80;;;;;;6121232;23;20420;-72
2021/06/12 03:57:08;;;;;;;10.18;6.38;;;16.90;75.90;;;;;;6121554;23;20029;-73
2021/06/12 03:59:35;;;;;;;13.23;7.30;;;16.90;76.10;;;;;;6121689;23;20029;-71
2021/06/12 04:02:03;;;;;;;14.73;7.18;;;16.90;76.30;;;;;;6120836;23;20010;-71
2021/06/12 04:04:29;;;;;;;15.70;7.15;;;16.90;76.30;;;;;;6120314;23;20330;-72
2021/06/12 04:06:56;;;;;;;13.95;6.28;;;16.90;76.50;;;;;;6120568;23;20346;-71
2021/06/12 04:09:23;;;;;;;12.80;6.70;;;16.90;76.60;;;;;;6121827;23;20044;-71
2021/06/12 04:11:50;;;;;;;10.13;6.38;;;16.90;76.80;;;;;;6120351;23;20002;-71
2021/06/12 04:14:16;;;;;;;10.20;5.72;;;17.00;76.90;;;;;;6121419;23;20002;-71
2021/06/12 04:16:43;;;;;;;11.13;6.15;;;16.90;77.10;;;;;;6121771;23;20014;-70
2021/06/12 04:19:09;;;;;;;10.40;6.18;;;16.90;77.20;;;;;;6121443;23;19998;-72
2021/06/12 04:21:36;;;;;;;9.07;6.43;;;16.90;77.20;;;;;;6122325;23;20010;-71
2021/06/12 04:24:03;;;;;;;8.85;6.30;;;16.90;77.50;;;;;;6118606;23;20021;-70
2021/06/12 04:26:33;;;;;;;11.45;6.22;;;16.90;78.00;;;;;;6121304;23;20006;-75
2021/06/12 04:29:00;;;;;;;9.13;6.63;;;16.90;78.40;;;;;;6118632;23;20010;-72
2021/06/12 04:31:27;;;;;;;7.88;5.82;;;16.90;78.40;;;;;;6122039;23;20004;-74
2021/06/12 04:33:53;;;;;;;10.48;7.78;;;16.80;78.30;;;;;;6121053;23;20002;-72
2021/06/12 04:36:20;;;;;;;10.93;8.02;;;16.80;78.20;;;;;;6122114;23;20009;-74
2021/06/12 04:38:47;;;;;;;13.55;9.57;;;16.90;78.10;;;;;;6120185;23;20010;-75
2021/06/12 04:41:13;;;;;;;11.90;7.57;;;16.90;78.00;;;;;;6120217;23;20037;-75
2021/06/12 04:43:40;;;;;;;9.88;7.53;;;16.80;77.90;;;;;;6120190;23;20336;-72
2021/06/12 04:46:07;;;;;;;9.02;6.93;;;16.80;77.80;;;;;;6119989;23;20329;-76
2021/06/12 04:48:33;;;;;;;11.00;6.95;;;16.80;77.70;;;;;;6121549;23;20442;-76
2021/06/12 04:51:00;;;;;;;8.70;6.40;;;16.80;77.70;;;;;;6120811;23;20002;-73
2021/06/12 04:53:30;;;;;;;7.78;6.10;;;16.80;77.70;;;;;;6120978;23;20013;-76
2021/06/12 04:55:58;;;;;;;11.77;6.28;;;16.80;77.70;;;;;;6121634;23;20052;-75
2021/06/12 04:58:25;;;;;;;8.88;6.13;;;16.80;77.80;;;;;;6119959;23;20014;-74
2021/06/12 05:00:53;;;;;;;10.18;7.85;;;16.80;77.80;;;;;;6121675;23;20426;-68
2021/06/12 05:03:20;;;;;;;9.60;6.70;;;16.80;77.80;;;;;;6120289;23;20005;-75
2021/06/12 05:05:48;;;;;;;10.50;6.82;;;16.80;77.80;;;;;;6121915;23;20013;-70
2021/06/12 05:08:16;;;;;;;11.32;7.18;;;16.80;77.90;;;;;;6120267;23;20341;-71
2021/06/12 05:10:42;;;;;;;11.60;7.85;;;16.80;77.90;;;;;;6121429;23;20011;-73
2021/06/12 05:13:09;;;;;;;13.63;9.40;;;16.70;77.90;;;;;;6121496;23;20002;-73
2021/06/12 05:15:36;;;;;;;9.70;7.70;;;16.70;78.00;;;;;;6120341;23;20002;-72
2021/06/12 05:18:05;;;;;;;9.80;7.25;;;16.70;78.00;;;;;;6120998;23;20017;-71
2021/06/12 05:20:35;;;;;;;11.48;7.28;;;16.70;78.10;;;;;;6119732;23;20009;-70
2021/06/12 05:23:03;;;;;;;7.80;6.68;;;16.70;78.10;;;;;;6121791;23;20299;-71
2021/06/12 05:25:31;;;;;;;10.82;7.78;;;16.70;78.10;;;;;;6118873;23;20029;-73
2021/06/12 05:27:57;;;;;;;15.40;7.03;;;16.70;78.20;;;;;;6121378;23;20002;-71
2021/06/12 05:30:24;;;;;;;11.68;7.28;;;16.70;78.30;;;;;;6121338;23;20006;-70
2021/06/12 05:32:51;;;;;;;8.48;6.03;;;16.70;78.30;;;;;;6120399;23;20430;-71
2021/06/12 05:35:18;;;;;;;12.68;6.80;;;16.70;78.40;;;;;;6121655;23;20002;-72
2021/06/12 05:37:44;;;;;;;10.10;6.35;;;16.70;78.40;;;;;;6119767;23;20021;-75
2021/06/12 05:40:13;;;;;;;13.88;7.20;;;16.70;78.50;;;;;;6120146;23;19998;-75
2021/06/12 05:42:41;;;;;;;14.70;9.00;;;16.70;79.30;;;;;;6120011;23;20033;-69
2021/06/12 05:45:49;;;;;;;18.00;10.23;;;16.70;79.00;;;;;;6121139;23;20080;-68
2021/06/12 05:48:56;;;;;;;16.30;8.85;;;16.70;79.20;;;;;;6121213;23;20002;-72
2021/06/12 05:52:02;;;;;;;13.68;8.60;;;16.70;79.30;;;;;;6119855;23;20006;-71
2021/06/12 05:54:48;;;;;;;;;;;16.70;79.30;;;;;;6119329;23;20002;-72
2021/06/12 05:57:55;;;;;;;17.00;10.83;;;16.70;79.30;;;;;;6120414;23;19940;-68
2021/06/12 06:01:02;;;;;;;16.52;9.90;;;16.70;80.90;;;;;;6119538;23;20010;-67
2021/06/12 06:04:10;;;;;;;16.08;10.52;;;16.60;81.60;;;;;;6116439;23;19998;-68
2021/06/12 06:07:18;;;;;;;14.15;8.85;;;16.50;82.10;;;;;;6121395;23;20009;-68
2021/06/12 06:10:25;;;;;;;12.68;8.43;;;16.40;82.00;;;;;;6121546;23;20010;-68
2021/06/12 06:12:52;;;;;;;25.65;8.68;;;16.30;82.00;;;;;;6119708;23;20002;-68
2021/06/12 06:15:19;;;;;;;10.95;8.65;;;16.20;81.80;;;;;;6120793;23;20069;-69
2021/06/12 06:17:48;;;;;;;13.35;10.65;;;16.10;82.00;;;;;;6119653;23;20021;-71
2021/06/12 06:20:17;;;;;;;20.38;15.32;;;16.00;82.20;;;;;;6120209;23;20002;-77
2021/06/12 06:22:44;;;;;;;17.70;13.73;;;16.10;82.20;;;;;;6120824;23;20012;-71
2021/06/12 06:25:14;;;;;;;14.85;11.00;;;16.10;82.00;;;;;;6118126;23;20442;-73
2021/06/12 06:28:22;;;;;;;19.08;12.25;;;16.20;81.70;;;;;;6120196;23;20006;-77
2021/06/12 06:31:29;;;;;;;13.60;10.82;;;16.20;81.30;;;;;;6120373;23;20006;-75
2021/06/12 06:34:35;;;;;;;15.15;9.13;;;16.20;80.90;;;;;;6119039;23;20005;-75
2021/06/12 06:37:10;;;;;;;10.98;9.55;;;16.30;80.50;;;;;;6120309;23;20089;-72
2021/06/12 06:39:37;;;;;;;14.95;9.65;;;16.30;80.20;;;;;;6118510;23;20061;-72
2021/06/12 06:42:03;;;;;;;12.57;9.45;;;16.40;80.10;;;;;;6119138;23;20338;-71
2021/06/12 06:44:32;;;;;;;16.02;10.07;;;16.40;80.00;;;;;;6119801;23;20006;-69
2021/06/12 06:46:58;;;;;;;11.63;8.55;;;16.40;79.80;;;;;;6119909;23;20136;-70
2021/06/12 06:49:25;;;;;;;10.75;8.57;;;16.50;79.90;;;;;;6121313;23;20010;-69
2021/06/12 06:51:51;;;;;;;10.52;9.27;;;16.50;79.80;;;;;;6119719;23;20077;-69
2021/06/12 06:54:18;;;;;;;11.82;7.95;;;16.50;79.70;;;;;;6120375;23;20002;-70
2021/06/12 06:56:44;;;;;;;10.60;8.55;;;16.50;79.60;;;;;;6120191;23;20014;-71
2021/06/12 06:59:11;;;;;;;9.98;7.88;;;16.50;79.50;;;;;;6120030;23;19998;-73
2021/06/12 07:01:38;;;;;;;12.48;8.32;;;16.50;79.50;;;;;;6120751;23;20505;-70
2021/06/12 07:04:05;;;;;;;11.05;8.40;;;16.50;79.40;;;;;;6117489;23;20060;-72
2021/06/12 07:06:32;;;;;;;10.60;8.15;;;16.50;79.40;;;;;;6120495;23;20392;-69
2021/06/12 07:08:58;;;;;;;11.45;8.40;;;16.60;79.40;;;;;;6119532;23;20025;-69
2021/06/12 07:11:25;;;;;;;13.15;8.32;;;16.60;79.40;;;;;;6122164;23;20362;-70
2021/06/12 07:13:51;;;;;;;11.13;8.45;;;16.60;79.40;;;;;;6120099;23;20016;-69
2021/06/12 07:16:18;;;;;;;12.85;8.80;;;16.60;79.40;;;;;;6121471;23;20442;-69
2021/06/12 07:18:45;;;;;;;11.50;7.50;;;16.60;79.50;;;;;;6122438;23;20002;-69
2021/06/12 07:21:12;;;;;;;10.07;8.13;;;16.60;79.50;;;;;;6121016;23;20374;-70
2021/06/12 07:23:38;;;;;;;12.20;8.63;;;16.60;79.40;;;;;;6122038;23;20002;-70
2021/06/12 07:26:05;;;;;;;13.50;7.55;;;16.60;79.40;;;;;;6121604;23;19998;-69
2021/06/12 07:28:33;;;;;;;13.48;8.35;;;16.60;79.40;;;;;;6121929;23;20009;-71
2021/06/12 07:30:59;;;;;;;14.25;9.20;;;16.60;79.40;;;;;;6120734;23;20073;-74
2021/06/12 07:33:26;;;;;;;10.90;8.38;;;16.70;79.50;;;;;;6121511;23;20014;-74
2021/06/12 07:35:53;;;;;;;15.13;8.98;;;16.70;79.40;;;;;;6121492;23;20322;-73
2021/06/12 07:38:20;;;;;;;13.95;8.50;;;16.70;79.40;;;;;;6121522;23;20014;-73
2021/06/12 07:40:46;;;;;;;13.32;9.55;;;16.70;79.30;;;;;;6122779;23;20002;-73
2021/06/12 07:43:18;;;;;;;14.20;8.48;;;16.70;79.30;;;;;;6121294;23;20037;-73
2021/06/12 07:45:49;;;;;;;13.35;9.02;;;16.80;79.20;;;;;;6122309;23;20006;-70
2021/06/12 07:48:16;;;;;;;13.82;10.45;;;16.70;79.10;;;;;;6119810;23;20065;-73
2021/06/12 07:50:43;;;;;;;16.75;10.88;;;16.80;79.10;;;;;;6121639;23;20719;-72
2021/06/12 07:53:09;;;;;;;15.05;10.48;;;16.80;79.00;;;;;;6121885;23;20084;-73
2021/06/12 07:55:36;;;;;;;12.85;10.30;;;16.80;78.90;;;;;;6121431;23;20418;-73
2021/06/12 07:58:03;;;;;;;16.23;9.90;;;16.80;78.90;;;;;;6119523;23;20346;-73
2021/06/12 08:00:30;;;;;;;19.98;12.50;;;16.90;78.90;;;;;;6120528;23;20019;-70
2021/06/12 08:02:56;;;;;;;18.42;11.85;;;16.80;78.90;;;;;;6121900;23;20044;-72
2021/06/12 08:05:24;;;;;;;16.50;11.75;;;16.90;79.00;;;;;;6118956;23;20392;-72
2021/06/12 08:07:51;;;;;;;20.65;12.50;;;16.90;79.00;;;;;;6122135;23;20299;-73
2021/06/12 08:10:18;;;;;;;17.35;11.85;;;16.90;78.90;;;;;;6121113;23;20016;-70
2021/06/12 08:12:45;;;;;;;23.02;13.18;;;17.00;79.00;;;;;;6121681;23;20006;-73
2021/06/12 08:15:12;;;;;;;22.25;13.52;;;17.00;79.00;;;;;;6122401;23;20029;-73
2021/06/12 08:17:39;;;;;;;21.50;13.93;;;17.00;79.00;;;;;;6120498;23;20010;-72
2021/06/12 08:20:07;;;;;;;20.00;14.65;;;17.00;78.90;;;;;;6121679;23;20414;-73
2021/06/12 08:22:33;;;;;;;26.05;15.90;;;17.10;78.90;;;;;;6119677;23;20002;-73
2021/06/12 08:25:00;;;;;;;21.10;15.27;;;17.10;78.90;;;;;;6121701;23;20045;-70
2021/06/12 08:27:27;;;;;;;23.40;15.80;;;17.10;78.90;;;;;;6120771;23;20048;-72
2021/06/12 08:29:53;;;;;;;23.23;15.35;;;17.10;78.90;;;;;;6119225;23;19994;-73
2021/06/12 08:32:20;;;;;;;21.45;16.40;;;17.20;79.00;;;;;;6121414;23;20006;-70
2021/06/12 08:34:46;;;;;;;22.25;17.10;;;17.20;79.00;;;;;;6120491;23;19994;-71
2021/06/12 08:37:13;;;;;;;24.90;17.90;;;17.20;78.90;;;;;;6120777;23;20100;-72
2021/06/12 08:39:40;;;;;;;22.73;18.40;;;17.30;79.00;;;;;;6118710;23;20369;-73
2021/06/12 08:42:06;;;;;;;23.90;18.13;;;17.30;78.90;;;;;;6120528;23;20014;-69
2021/06/12 08:44:35;;;;;;;24.45;17.80;;;17.30;78.90;;;;;;6120625;23;20453;-71
2021/06/12 08:47:02;;;;;;;24.58;19.35;;;17.30;78.90;;;;;;6121546;23;20049;-73
2021/06/12 08:49:28;;;;;;;25.50;19.20;;;17.40;78.90;;;;;;6120376;23;20009;-72
2021/06/12 08:51:55;;;;;;;25.13;18.63;;;17.40;78.80;;;;;;6120703;23;20005;-72
2021/06/12 08:54:25;;;;;;;22.98;17.60;;;17.50;78.80;;;;;;6121376;23;20006;-72
2021/06/12 08:56:52;;;;;;;21.30;17.45;;;17.40;78.70;;;;;;6120018;23;20014;-73
2021/06/12 08:59:19;;;;;;;24.90;16.45;;;17.50;78.70;;;;;;6121317;23;19998;-73
2021/06/12 09:01:46;;;;;;;23.35;16.38;;;17.50;78.60;;;;;;6120621;23;20005;-70
2021/06/12 09:04:30;;;;;;;20.38;15.48;;;17.50;78.50;;;;;;6121023;23;20307;-69
2021/06/12 09:07:29;;;;;;;19.65;15.75;;;17.60;78.40;;;;;;6121583;23;20318;-70
2021/06/12 09:09:58;;;;;;;19.98;15.50;;;17.60;78.20;;;;;;6119612;23;20018;-69
2021/06/12 09:12:48;;;;;;;22.10;15.40;;;17.70;78.10;;;;;;6121047;23;19998;-70
2021/06/12 09:15:17;;;;;;;21.90;15.98;;;17.70;77.90;;;;;;6121180;23;20013;-72
2021/06/12 09:17:46;;;;;;;18.50;14.90;;;17.80;77.80;;;;;;6120706;23;20065;-68
2021/06/12 09:20:18;;;;;;;18.40;14.48;;;17.80;77.60;;;;;;6121328;23;20374;-72
2021/06/12 09:22:45;;;;;;;20.98;15.35;;;17.90;77.60;;;;;;6119640;23;20385;-71
2021/06/12 09:25:32;;;;;;;23.45;15.15;;;17.90;77.40;;;;;;6119046;23;20016;-70
2021/06/12 09:27:58;;;;;;;18.73;14.73;;;18.00;77.40;;;;;;6120426;23;20005;-71
2021/06/12 09:30:30;;;;;;;26.30;16.20;;;18.00;77.30;;;;;;6120537;23;20739;-71
2021/06/12 09:32:56;;;;;;;22.27;14.77;;;18.00;77.20;;;;;;6120170;23;20036;-71
2021/06/12 09:35:31;;;;;;;21.60;15.15;;;18.10;77.20;;;;;;6118127;23;20056;-71
2021/06/12 09:37:59;;;;;;;19.05;15.60;;;18.10;77.00;;;;;;6120997;23;20378;-68
2021/06/12 09:40:33;;;;;;;19.42;14.35;;;18.20;76.90;;;;;;6120070;23;20005;-71
2021/06/12 09:43:01;;;;;;;24.27;15.57;;;18.20;76.70;;;;;;6120110;23;20010;-71
2021/06/12 09:45:33;;;;;;;18.13;12.57;;;18.20;76.60;;;;;;6120351;23;20485;-72
2021/06/12 09:48:14;;;;;;;19.67;13.40;;;18.30;76.60;;;;;;6121038;23;20673;-71
2021/06/12 09:50:42;;;;;;;18.27;13.50;;;18.40;76.60;;;;;;6120056;23;20010;-69
2021/06/12 09:53:13;;;;;;;19.70;13.70;;;18.40;76.50;;;;;;6119621;23;19998;-69
2021/06/12 09:55:40;;;;;;;18.95;13.50;;;18.50;76.30;;;;;;6121278;23;20017;-71
2021/06/12 09:58:08;;;;;;;19.75;13.80;;;18.50;76.10;;;;;;6120597;23;20017;-71
2021/06/12 10:00:41;;;;;;;16.95;14.27;;;18.60;75.90;;;;;;6120471;23;20002;-71
2021/06/12 10:03:31;;;;;;;19.90;14.02;;;18.60;75.70;;;;;;6120554;23;20029;-72
2021/06/12 10:06:19;;;;;;;17.02;13.25;;;18.70;75.60;;;;;;6119442;23;20085;-69
2021/06/12 10:08:50;;;;;;;19.42;12.88;;;18.80;75.40;;;;;;6120679;23;20013;-71
2021/06/12 10:11:24;;;;;;;21.00;13.10;;;18.80;75.40;;;;;;6120009;23;20013;-72
2021/06/12 10:13:51;;;;;;;19.85;14.25;;;18.90;75.30;;;;;;6120557;23;20006;-69
2021/06/12 10:16:18;;;;;;;17.90;12.55;;;18.90;74.90;;;;;;6121938;23;20010;-69
2021/06/12 10:18:47;;;;;;;17.90;13.80;;;19.00;74.90;;;;;;6120327;23;20021;-69
2021/06/12 10:21:15;;;;;;;19.42;13.77;;;19.10;74.70;;;;;;6121474;23;20516;-71
2021/06/12 10:23:46;;;;;;;19.58;13.93;;;19.10;74.40;;;;;;6120567;23;20006;-70
2021/06/12 10:26:16;;;;;;;22.90;14.00;;;19.20;74.20;;;;;;6121622;23;20097;-69
2021/06/12 10:28:42;;;;;;;16.15;12.38;;;19.20;73.80;;;;;;6119080;23;20010;-73
2021/06/12 10:31:17;;;;;;;17.65;12.68;;;19.30;73.60;;;;;;6120978;23;20005;-72
2021/06/12 10:33:47;;;;;;;16.97;12.93;;;19.30;73.50;;;;;;6121393;23;20005;-72
2021/06/12 10:36:17;;;;;;;18.85;12.32;;;19.40;73.20;;;;;;6120154;23;20068;-72
2021/06/12 10:38:45;;;;;;;26.58;12.88;;;19.50;73.20;;;;;;6121231;23;20014;-72
2021/06/12 10:41:15;;;;;;;17.35;12.43;;;19.50;72.80;;;;;;6120209;23;20056;-72
2021/06/12 10:43:42;;;;;;;16.50;11.30;;;19.60;72.60;;;;;;6120751;23;20041;-72
2021/06/12 10:46:09;;;;;;;18.00;11.88;;;19.60;72.20;;;;;;6123073;23;20004;-71
2021/06/12 10:48:47;;;;;;;11.68;10.48;;;19.70;71.80;;;;;;6122697;23;19990;-73
2021/06/12 10:51:26;;;;;;;17.00;9.80;;;19.70;71.60;;;;;;6123286;23;20034;-69
2021/06/12 10:54:20;;;;;;;13.30;9.90;;;19.80;71.40;;;;;;6122150;23;20394;-69
2021/06/12 10:56:48;;;;;;;12.63;8.88;;;19.90;71.00;;;;;;6123523;23;20334;-72
2021/06/12 10:59:38;;;;;;;13.05;9.30;;;19.90;70.60;;;;;;6121389;23;20006;-69
2021/06/12 11:02:14;;;;;;;10.27;8.75;;;20.00;70.30;;;;;;6120283;23;20020;-72
2021/06/12 11:04:52;;;;;;;10.75;8.57;;;20.10;70.10;;;;;;6123277;23;19998;-69
2021/06/12 11:07:29;;;;;;;12.85;8.25;;;20.10;69.70;;;;;;6121833;23;20010;-72
2021/06/12 11:10:11;;;;;;;13.43;8.10;;;20.20;69.40;;;;;;6122708;23;20021;-69
2021/06/12 11:12:48;;;;;;;10.52;7.93;;;20.30;68.50;;;;;;6123475;23;20002;-70
2021/06/12 11:15:28;;;;;;;10.60;8.52;;;20.30;68.20;;;;;;6121954;23;20005;-69
2021/06/12 11:18:23;;;;;;;11.70;8.55;;;20.40;67.40;;;;;;6123127;23;20010;-70
2021/06/12 11:21:01;;;;;;;12.77;8.20;;;20.50;67.60;;;;;;6122655;23;20514;-72
2021/06/12 11:23:54;;;;;;;11.98;9.20;;;20.50;66.70;;;;;;6122350;23;20004;-69
2021/06/12 11:26:22;;;;;;;12.60;8.52;;;20.60;66.50;;;;;;6121419;23;20330;-70
2021/06/12 11:29:09;;;;;;;9.75;7.47;;;20.60;66.50;;;;;;6121877;23;20065;-69
2021/06/12 11:31:38;;;;;;;12.40;7.47;;;20.70;65.90;;;;;;6122437;23;20009;-69
2021/06/12 11:34:24;;;;;;;8.80;6.75;;;20.70;65.50;;;;;;6123007;23;20172;-73
2021/06/12 11:37:14;;;;;;;11.82;7.53;;;20.80;65.30;;;;;;6121877;23;20370;-72
2021/06/12 11:39:49;;;;;;;10.15;7.28;;;20.90;64.60;;;;;;6105886;23;20006;-71
2021/06/12 11:42:15;;;;;;;9.38;7.53;;;20.90;64.00;;;;;;6121921;23;20433;-70
2021/06/12 11:44:42;;;;;;;10.85;7.47;;;21.00;64.00;;;;;;6122051;23;20068;-73
2021/06/12 11:47:08;;;;;;;8.38;6.60;;;21.00;63.40;;;;;;6122783;23;20040;-75
2021/06/12 11:49:35;;;;;;;9.60;6.40;;;21.10;63.30;;;;;;6121596;23;19994;-72
2021/06/12 11:52:02;;;;;;;8.57;6.15;;;21.10;62.80;;;;;;6122911;23;20029;-70
2021/06/12 11:54:31;;;;;;;14.68;8.80;;;21.10;61.90;;;;;;6121553;23;20005;-70
2021/06/12 11:57:37;;;;;;;16.98;9.18;;;21.20;62.90;;;;;;6122523;23;20341;-72
2021/06/12 12:00:46;;;;;;;24.08;11.75;;;21.30;64.20;;;;;;6122382;23;19998;-72
2021/06/12 12:03:52;;;;;;;34.08;13.00;;;21.40;66.00;;;;;;6121361;23;20362;-70
2021/06/12 12:06:58;;;;;;;23.38;14.30;;;21.60;65.60;;;;;;6122321;23;20057;-70
2021/06/12 12:10:07;;;;;;;24.40;15.73;;;21.60;65.20;;;;;;6121553;23;20025;-70
2021/06/12 12:13:13;;;;;;;19.90;11.63;;;21.60;65.00;;;;;;6122202;23;20089;-72
2021/06/12 12:16:19;;;;;;;19.88;13.20;;;21.50;65.30;;;;;;6121182;23;20318;-70
2021/06/12 12:19:26;;;;;;;16.02;11.85;;;21.30;65.60;;;;;;6122632;23;20014;-69
2021/06/12 12:22:32;;;;;;;14.63;11.45;;;21.30;65.90;;;;;;6122318;23;20016;-69
2021/06/12 12:25:38;;;;;;;20.25;11.93;;;21.20;66.10;;;;;;6120989;23;20330;-70
2021/06/12 12:28:45;;;;;;;18.77;11.30;;;21.20;66.40;;;;;;6121790;23;20002;-71
2021/06/12 12:31:51;;;;;;;17.30;11.20;;;21.20;66.30;;;;;;6121968;23;20006;-68
2021/06/12 12:35:06;;;;;;;123.55;22.45;;;21.10;66.30;;;;;;6121719;23;20002;-70
2021/06/12 12:38:12;;;;;;;47.88;13.05;;;21.10;66.50;;;;;;6121100;23;20330;-69
2021/06/12 12:40:39;;;;;;;27.48;12.13;;;21.10;66.60;;;;;;6122574;23;20413;-70
2021/06/12 12:43:07;;;;;;;34.28;12.77;;;21.10;66.50;;;;;;6122157;23;20330;-73
2021/06/12 12:45:35;;;;;;;25.63;11.88;;;21.10;66.60;;;;;;6121350;23;20434;-70
2021/06/12 12:48:02;;;;;;;32.28;13.30;;;21.10;66.80;;;;;;6122162;23;20618;-74
2021/06/12 12:50:30;;;;;;;46.70;16.52;;;21.10;66.80;;;;;;6120949;23;20006;-70
2021/06/12 12:53:19;;;;;;;28.70;12.50;;;21.20;66.80;;;;;;6122372;23;20102;-73
2021/06/12 12:55:57;;;;;;;17.90;10.13;;;21.30;67.00;;;;;;6121147;23;20442;-72
2021/06/12 12:58:28;;;;;;;12.45;10.43;;;21.30;67.30;;;;;;6121412;23;20385;-69
2021/06/12 13:01:05;;;;;;;15.63;9.63;;;21.40;66.40;;;;;;6122325;23;20430;-70
2021/06/12 13:03:50;;;;;;;16.73;9.90;;;21.40;65.30;;;;;;6120558;23;20013;-72